Terminal Aerodrome Forecast
Issued by NWS

Home | Current Version | Previous Version | Text Only | Print | Product List | Glossary On
Versions: 1 2 3 4 5 6 7 8 9 10 11 12 13 14 15 16 17 18
000
FTUS43 KICT 010531
TAFRSL
TAF
KRSL 010531Z 0106/0206 VRB03KT P6SM OVC020
      TEMPO 0108/0112 3SM -SN OVC010
     FM011500 34006KT P6SM SCT020 BKN130
     FM012300 08006KT P6SM BKN130=

USA.gov is the U.S. government's official web portal to all federal, state and local government web resources and services.